sensor_id;sensor_type;location;lat;lon;timestamp;pressure;altitude;pressure_sealevel;temperature;humidity
7170;BME280;3626;42.656;23.312;2023-03-25T00:00:13;94280.81;;;7.26;99.88
7170;BME280;3626;42.656;23.312;2023-03-25T00:00:21;94278.91;;;7.28;99.97
7170;BME280;3626;42.656;23.312;2023-03-25T00:00:27;94280.66;;;7.28;99.93
7170;BME280;3626;42.656;23.312;2023-03-25T00:00:33;94281.47;;;7.28;99.65
7170;BME280;3626;42.656;23.312;2023-03-25T00:00:43;94275.53;;;7.28;99.52
7170;BME280;3626;42.656;23.312;2023-03-25T00:00:54;94286.59;;;7.28;99.87
7170;BME280;3626;42.656;23.312;2023-03-25T00:01:04;94277.13;;;7.29;99.56
7170;BME280;3626;42.656;23.312;2023-03-25T00:01:15;94277.94;;;7.29;99.89
7170;BME280;3626;42.656;23.312;2023-03-25T00:01:22;94279.53;;;7.30;99.49
7170;BME280;3626;42.656;23.312;2023-03-25T00:01:30;94276.97;;;7.30;99.71
7170;BME280;3626;42.656;23.312;2023-03-25T00:01:37;94281.16;;;7.31;99.54
7170;BME280;3626;42.656;23.312;2023-03-25T00:01:43;94282.94;;;7.31;99.63
7170;BME280;3626;42.656;23.312;2023-03-25T00:01:50;94284.53;;;7.32;99.81
7170;BME280;3626;42.656;23.312;2023-03-25T00:01:56;94281.97;;;7.32;99.47
7170;BME280;3626;42.656;23.312;2023-03-25T00:02:02;94281.16;;;7.31;99.66
7170;BME280;3626;42.656;23.312;2023-03-25T00:02:10;94281.16;;;7.31;99.22
7170;BME280;3626;42.656;23.312;2023-03-25T00:02:18;94284.53;;;7.32;99.84
7170;BME280;3626;42.656;23.312;2023-03-25T00:02:25;94285.50;;;7.31;99.64
7170;BME280;3626;42.656;23.312;2023-03-25T00:02:31;94284.66;;;7.30;99.31
7170;BME280;3626;42.656;23.312;2023-03-25T00:02:39;94286.44;;;7.30;99.37
7170;BME280;3626;42.656;23.312;2023-03-25T00:02:47;94288.19;;;7.29;99.67
7170;BME280;3626;42.656;23.312;2023-03-25T00:02:53;94277.94;;;7.29;99.26
7170;BME280;3626;42.656;23.312;2023-03-25T00:02:59;94274.56;;;7.29;99.44
7170;BME280;3626;42.656;23.312;2023-03-25T00:03:05;94282.25;;;7.29;99.23
7170;BME280;3626;42.656;23.312;2023-03-25T00:03:11;94284.03;;;7.28;99.19
7170;BME280;3626;42.656;23.312;2023-03-25T00:03:18;94280.66;;;7.28;99.08
7170;BME280;3626;42.656;23.312;2023-03-25T00:03:24;94272.28;;;7.25;99.76
7170;BME280;3626;42.656;23.312;2023-03-25T00:03:31;94276.63;;;7.25;99.51
7170;BME280;3626;42.656;23.312;2023-03-25T00:03:40;94280.81;;;7.26;99.52
7170;BME280;3626;42.656;23.312;2023-03-25T00:03:46;94279.88;;;7.27;100.00
7170;BME280;3626;42.656;23.312;2023-03-25T00:03:57;94280.00;;;7.25;99.27
7170;BME280;3626;42.656;23.312;2023-03-25T00:04:05;94274.88;;;7.25;99.35
7170;BME280;3626;42.656;23.312;2023-03-25T00:04:11;94284.34;;;7.25;100.00
7170;BME280;3626;42.656;23.312;2023-03-25T00:04:17;94286.09;;;7.24;100.00
7170;BME280;3626;42.656;23.312;2023-03-25T00:04:23;94278.41;;;7.24;99.48
7170;BME280;3626;42.656;23.312;2023-03-25T00:04:32;94279.38;;;7.23;99.72
7170;BME280;3626;42.656;23.312;2023-03-25T00:04:39;94280.16;;;7.24;99.69
7170;BME280;3626;42.656;23.312;2023-03-25T00:04:49;94278.56;;;7.23;100.00
7170;BME280;3626;42.656;23.312;2023-03-25T00:04:59;94280.31;;;7.22;99.84
7170;BME280;3626;42.656;23.312;2023-03-25T00:05:08;94281.25;;;7.21;100.00
7170;BME280;3626;42.656;23.312;2023-03-25T00:05:18;94283.03;;;7.21;99.94
7170;BME280;3626;42.656;23.312;2023-03-25T00:05:25;94279.66;;;7.20;100.00
7170;BME280;3626;42.656;23.312;2023-03-25T00:05:31;94286.56;;;7.20;99.91
7170;BME280;3626;42.656;23.312;2023-03-25T00:05:38;94280.47;;;7.21;100.00
7170;BME280;3626;42.656;23.312;2023-03-25T00:05:44;94285.59;;;7.21;99.62
7170;BME280;3626;42.656;23.312;2023-03-25T00:05:51;94282.22;;;7.20;100.00
7170;BME280;3626;42.656;23.312;2023-03-25T00:05:57;94279.66;;;7.20;100.00
7170;BME280;3626;42.656;23.312;2023-03-25T00:06:05;94283.03;;;7.21;100.00
7170;BME280;3626;42.656;23.312;2023-03-25T00:06:12;94281.25;;;7.21;99.99
7170;BME280;3626;42.656;23.312;2023-03-25T00:06:18;94284.78;;;7.20;100.00
7170;BME280;3626;42.656;23.312;2023-03-25T00:06:25;94285.59;;;7.21;100.00
7170;BME280;3626;42.656;23.312;2023-03-25T00:06:32;94280.63;;;7.19;100.00
7170;BME280;3626;42.656;23.312;2023-03-25T00:06:38;94278.88;;;7.20;100.00
7170;BME280;3626;42.656;23.312;2023-03-25T00:06:44;94284.00;;;7.20;100.00
7170;BME280;3626;42.656;23.312;2023-03-25T00:06:53;94279.66;;;7.20;100.00
7170;BME280;3626;42.656;23.312;2023-03-25T00:07:00;94279.66;;;7.20;100.00
7170;BME280;3626;42.656;23.312;2023-03-25T00:07:07;94284.78;;;7.20;100.00
7170;BME280;3626;42.656;23.312;2023-03-25T00:07:13;94284.00;;;7.20;100.00
7170;BME280;3626;42.656;23.312;2023-03-25T00:07:19;94286.56;;;7.20;100.00
7170;BME280;3626;42.656;23.312;2023-03-25T00:07:26;94284.00;;;7.20;100.00
7170;BME280;3626;42.656;23.312;2023-03-25T00:07:32;94285.75;;;7.19;100.00
7170;BME280;3626;42.656;23.312;2023-03-25T00:07:38;94285.75;;;7.19;100.00
7170;BME280;3626;42.656;23.312;2023-03-25T00:07:48;94281.72;;;7.17;100.00
7170;BME280;3626;42.656;23.312;2023-03-25T00:07:55;94284.16;;;7.18;100.00
7170;BME280;3626;42.656;23.312;2023-03-25T00:08:01;94284.97;;;7.19;100.00
7170;BME280;3626;42.656;23.312;2023-03-25T00:08:08;94285.94;;;7.18;100.00
7170;BME280;3626;42.656;23.312;2023-03-25T00:08:14;94286.84;;;7.17;100.00
7170;BME280;3626;42.656;23.312;2023-03-25T00:08:21;94282.53;;;7.17;100.00
7170;BME280;3626;42.656;23.312;2023-03-25T00:08:28;94285.09;;;7.17;100.00
7170;BME280;3626;42.656;23.312;2023-03-25T00:08:34;94277.56;;;7.16;100.00
7170;BME280;3626;42.656;23.312;2023-03-25T00:08:41;94288.63;;;7.16;100.00
7170;BME280;3626;42.656;23.312;2023-03-25T00:08:47;94281.91;;;7.15;100.00
7170;BME280;3626;42.656;23.312;2023-03-25T00:08:53;94291.34;;;7.15;100.00
7170;BME280;3626;42.656;23.312;2023-03-25T00:08:59;94281.09;;;7.15;100.00
7170;BME280;3626;42.656;23.312;2023-03-25T00:09:08;94279.50;;;7.14;100.00
7170;BME280;3626;42.656;23.312;2023-03-25T00:09:16;94285.41;;;7.14;100.00
7170;BME280;3626;42.656;23.312;2023-03-25T00:09:23;94279.50;;;7.14;100.00
7170;BME280;3626;42.656;23.312;2023-03-25T00:09:29;94288.00;;;7.14;100.00
7170;BME280;3626;42.656;23.312;2023-03-25T00:09:35;94287.03;;;7.15;100.00
7170;BME280;3626;42.656;23.312;2023-03-25T00:09:41;94286.22;;;7.15;100.00
7170;BME280;3626;42.656;23.312;2023-03-25T00:09:48;94283.66;;;7.15;100.00
7170;BME280;3626;42.656;23.312;2023-03-25T00:09:54;94286.06;;;7.16;100.00
7170;BME280;3626;42.656;23.312;2023-03-25T00:10:00;94287.81;;;7.16;100.00
7170;BME280;3626;42.656;23.312;2023-03-25T00:10:07;94280.13;;;7.16;100.00
7170;BME280;3626;42.656;23.312;2023-03-25T00:10:14;94282.69;;;7.16;100.00
7170;BME280;3626;42.656;23.312;2023-03-25T00:10:20;94282.84;;;7.14;100.00
7170;BME280;3626;42.656;23.312;2023-03-25T00:10:29;94287.19;;;7.14;100.00
7170;BME280;3626;42.656;23.312;2023-03-25T00:10:36;94284.63;;;7.14;100.00
7170;BME280;3626;42.656;23.312;2023-03-25T00:10:42;94281.22;;;7.13;100.00
7170;BME280;3626;42.656;23.312;2023-03-25T00:10:51;94282.06;;;7.14;100.00
7170;BME280;3626;42.656;23.312;2023-03-25T00:10:59;94291.34;;;7.15;100.00
7170;BME280;3626;42.656;23.312;2023-03-25T00:11:06;94284.63;;;7.14;100.00
7170;BME280;3626;42.656;23.312;2023-03-25T00:11:12;94286.22;;;7.15;99.89
7170;BME280;3626;42.656;23.312;2023-03-25T00:11:19;94278.66;;;7.13;100.00
7170;BME280;3626;42.656;23.312;2023-03-25T00:11:25;94284.63;;;7.14;100.00
7170;BME280;3626;42.656;23.312;2023-03-25T00:11:31;94288.13;;;7.13;100.00
7170;BME280;3626;42.656;23.312;2023-03-25T00:11:37;94285.56;;;7.13;100.00
7170;BME280;3626;42.656;23.312;2023-03-25T00:11:43;94284.75;;;7.12;100.00
7170;BME280;3626;42.656;23.312;2023-03-25T00:11:52;94290.69;;;7.13;100.00
7170;BME280;3626;42.656;23.312;2023-03-25T00:11:58;94288.13;;;7.13;100.00
7170;BME280;3626;42.656;23.312;2023-03-25T00:12:05;94283.78;;;7.13;100.00
7170;BME280;3626;42.656;23.312;2023-03-25T00:12:11;94282.19;;;7.12;100.00
7170;BME280;3626;42.656;23.312;2023-03-25T00:12:17;94283.16;;;7.11;100.00
7170;BME280;3626;42.656;23.312;2023-03-25T00:12:23;94282.19;;;7.12;100.00
7170;BME280;3626;42.656;23.312;2023-03-25T00:12:29;94285.56;;;7.13;100.00
7170;BME280;3626;42.656;23.312;2023-03-25T00:12:35;94288.28;;;7.11;100.00
7170;BME280;3626;42.656;23.312;2023-03-25T00:12:41;94281.38;;;7.12;100.00
7170;BME280;3626;42.656;23.312;2023-03-25T00:12:47;94288.13;;;7.13;100.00
7170;BME280;3626;42.656;23.312;2023-03-25T00:12:53;94287.31;;;7.12;100.00
7170;BME280;3626;42.656;23.312;2023-03-25T00:12:59;94287.31;;;7.12;100.00
7170;BME280;3626;42.656;23.312;2023-03-25T00:13:09;94281.38;;;7.12;100.00
7170;BME280;3626;42.656;23.312;2023-03-25T00:13:18;94290.69;;;7.13;100.00
7170;BME280;3626;42.656;23.312;2023-03-25T00:13:27;94291.66;;;7.12;100.00
7170;BME280;3626;42.656;23.312;2023-03-25T00:13:36;94288.28;;;7.11;100.00
7170;BME280;3626;42.656;23.312;2023-03-25T00:13:42;94286.69;;;7.10;100.00
7170;BME280;3626;42.656;23.312;2023-03-25T00:13:50;94288.28;;;7.11;100.00
7170;BME280;3626;42.656;23.312;2023-03-25T00:13:58;94286.69;;;7.10;100.00
7170;BME280;3626;42.656;23.312;2023-03-25T00:14:04;94283.31;;;7.10;100.00
7170;BME280;3626;42.656;23.312;2023-03-25T00:14:10;94288.44;;;7.10;100.00
7170;BME280;3626;42.656;23.312;2023-03-25T00:14:17;94282.34;;;7.11;100.00
7170;BME280;3626;42.656;23.312;2023-03-25T00:14:23;94289.25;;;7.10;100.00
7170;BME280;3626;42.656;23.312;2023-03-25T00:14:30;94285.88;;;7.10;100.00
7170;BME280;3626;42.656;23.312;2023-03-25T00:14:37;94287.47;;;7.11;100.00
7170;BME280;3626;42.656;23.312;2023-03-25T00:14:43;94289.25;;;7.10;100.00
7170;BME280;3626;42.656;23.312;2023-03-25T00:14:58;94287.47;;;7.11;100.00
7170;BME280;3626;42.656;23.312;2023-03-25T00:15:05;94285.88;;;7.10;100.00
7170;BME280;3626;42.656;23.312;2023-03-25T00:15:14;94280.59;;;7.11;100.00
7170;BME280;3626;42.656;23.312;2023-03-25T00:15:20;94283.16;;;7.11;100.00
7170;BME280;3626;42.656;23.312;2023-03-25T00:15:26;94293.41;;;7.11;100.00
7170;BME280;3626;42.656;23.312;2023-03-25T00:15:34;94282.34;;;7.11;100.00
7170;BME280;3626;42.656;23.312;2023-03-25T00:15:41;94290.06;;;7.11;100.00
7170;BME280;3626;42.656;23.312;2023-03-25T00:15:47;94288.44;;;7.10;100.00
7170;BME280;3626;42.656;23.312;2023-03-25T00:15:54;94281.56;;;7.10;100.00
7170;BME280;3626;42.656;23.312;2023-03-25T00:16:03;94283.31;;;7.10;100.00
7170;BME280;3626;42.656;23.312;2023-03-25T00:16:15;94288.44;;;7.10;100.00
7170;BME280;3626;42.656;23.312;2023-03-25T00:16:21;94288.44;;;7.10;100.00
7170;BME280;3626;42.656;23.312;2023-03-25T00:16:27;94279.91;;;7.09;100.00
7170;BME280;3626;42.656;23.312;2023-03-25T00:16:33;94280.75;;;7.10;100.00
7170;BME280;3626;42.656;23.312;2023-03-25T00:16:39;94280.88;;;7.08;100.00
7170;BME280;3626;42.656;23.312;2023-03-25T00:16:45;94281.69;;;7.09;100.00
7170;BME280;3626;42.656;23.312;2023-03-25T00:16:52;94281.69;;;7.09;100.00
7170;BME280;3626;42.656;23.312;2023-03-25T00:16:58;94278.31;;;7.08;100.00
7170;BME280;3626;42.656;23.312;2023-03-25T00:17:05;94279.13;;;7.09;100.00
7170;BME280;3626;42.656;23.312;2023-03-25T00:17:12;94282.66;;;7.08;100.00
7170;BME280;3626;42.656;23.312;2023-03-25T00:17:18;94286.03;;;7.08;100.00
7170;BME280;3626;42.656;23.312;2023-03-25T00:17:25;94281.69;;;7.09;100.00
7170;BME280;3626;42.656;23.312;2023-03-25T00:17:35;94281.69;;;7.09;100.00
7170;BME280;3626;42.656;23.312;2023-03-25T00:17:43;94285.22;;;7.08;100.00
7170;BME280;3626;42.656;23.312;2023-03-25T00:17:49;94277.53;;;7.08;100.00
7170;BME280;3626;42.656;23.312;2023-03-25T00:17:55;94286.03;;;7.08;100.00
7170;BME280;3626;42.656;23.312;2023-03-25T00:18:01;94280.88;;;7.08;100.00
7170;BME280;3626;42.656;23.312;2023-03-25T00:18:07;94276.72;;;7.07;100.00
7170;BME280;3626;42.656;23.312;2023-03-25T00:18:14;94281.69;;;7.09;100.00
7170;BME280;3626;42.656;23.312;2023-03-25T00:18:21;94281.84;;;7.07;100.00
7170;BME280;3626;42.656;23.312;2023-03-25T00:18:29;94280.88;;;7.08;100.00
7170;BME280;3626;42.656;23.312;2023-03-25T00:18:37;94276.72;;;7.07;100.00
7170;BME280;3626;42.656;23.312;2023-03-25T00:18:44;94279.28;;;7.07;100.00
7170;BME280;3626;42.656;23.312;2023-03-25T00:18:52;94277.53;;;7.08;100.00
7170;BME280;3626;42.656;23.312;2023-03-25T00:18:58;94280.88;;;7.08;100.00
7170;BME280;3626;42.656;23.312;2023-03-25T00:19:06;94277.53;;;7.08;100.00
7170;BME280;3626;42.656;23.312;2023-03-25T00:19:13;94279.13;;;7.09;100.00
7170;BME280;3626;42.656;23.312;2023-03-25T00:19:20;94274.97;;;7.08;100.00
7170;BME280;3626;42.656;23.312;2023-03-25T00:19:26;94277.34;;;7.09;100.00
7170;BME280;3626;42.656;23.312;2023-03-25T00:19:33;94274.78;;;7.09;100.00
7170;BME280;3626;42.656;23.312;2023-03-25T00:19:39;94281.56;;;7.10;100.00
7170;BME280;3626;42.656;23.312;2023-03-25T00:19:46;94279.00;;;7.10;100.00
7170;BME280;3626;42.656;23.312;2023-03-25T00:19:55;94275.63;;;7.10;100.00
7170;BME280;3626;42.656;23.312;2023-03-25T00:20:03;94270.50;;;7.10;100.00
7170;BME280;3626;42.656;23.312;2023-03-25T00:20:15;94273.06;;;7.10;100.00
7170;BME280;3626;42.656;23.312;2023-03-25T00:20:21;94278.19;;;7.10;100.00
7170;BME280;3626;42.656;23.312;2023-03-25T00:20:27;94268.72;;;7.10;100.00
7170;BME280;3626;42.656;23.312;2023-03-25T00:20:33;94270.50;;;7.10;100.00
7170;BME280;3626;42.656;23.312;2023-03-25T00:20:40;94278.19;;;7.10;100.00
7170;BME280;3626;42.656;23.312;2023-03-25T00:20:47;94273.06;;;7.10;100.00
7170;BME280;3626;42.656;23.312;2023-03-25T00:20:54;94273.84;;;7.10;100.00
7170;BME280;3626;42.656;23.312;2023-03-25T00:21:02;94270.50;;;7.10;100.00
7170;BME280;3626;42.656;23.312;2023-03-25T00:21:09;94269.66;;;7.09;100.00
7170;BME280;3626;42.656;23.312;2023-03-25T00:21:16;94272.22;;;7.09;99.68
7170;BME280;3626;42.656;23.312;2023-03-25T00:21:23;94278.19;;;7.10;100.00
7170;BME280;3626;42.656;23.312;2023-03-25T00:21:32;94273.06;;;7.10;100.00
7170;BME280;3626;42.656;23.312;2023-03-25T00:21:38;94275.63;;;7.10;100.00
7170;BME280;3626;42.656;23.312;2023-03-25T00:21:44;94272.22;;;7.09;99.96
7170;BME280;3626;42.656;23.312;2023-03-25T00:21:50;94278.19;;;7.10;100.00
7170;BME280;3626;42.656;23.312;2023-03-25T00:21:56;94279.13;;;7.09;100.00
7170;BME280;3626;42.656;23.312;2023-03-25T00:22:02;94271.41;;;7.09;100.00
7170;BME280;3626;42.656;23.312;2023-03-25T00:22:08;94274.78;;;7.09;100.00
7170;BME280;3626;42.656;23.312;2023-03-25T00:22:15;94269.81;;;7.08;99.95
7170;BME280;3626;42.656;23.312;2023-03-25T00:22:21;94265.66;;;7.07;99.99
7170;BME280;3626;42.656;23.312;2023-03-25T00:22:27;94274.31;;;7.06;100.00
7170;BME280;3626;42.656;23.312;2023-03-25T00:22:33;94272.56;;;7.06;100.00
7170;BME280;3626;42.656;23.312;2023-03-25T00:22:45;94270.78;;;7.07;100.00
7170;BME280;3626;42.656;23.312;2023-03-25T00:22:52;94270.78;;;7.07;100.00
7170;BME280;3626;42.656;23.312;2023-03-25T00:22:58;94270.00;;;7.06;100.00
7170;BME280;3626;42.656;23.312;2023-03-25T00:23:04;94272.56;;;7.06;100.00
7170;BME280;3626;42.656;23.312;2023-03-25T00:23:11;94272.38;;;7.08;100.00
7170;BME280;3626;42.656;23.312;2023-03-25T00:23:18;94274.97;;;7.08;100.00
7170;BME280;3626;42.656;23.312;2023-03-25T00:23:24;94271.59;;;7.07;100.00
7170;BME280;3626;42.656;23.312;2023-03-25T00:23:31;94268.22;;;7.07;100.00
7170;BME280;3626;42.656;23.312;2023-03-25T00:23:38;94269.31;;;7.04;100.00
7170;BME280;3626;42.656;23.312;2023-03-25T00:23:45;94270.28;;;7.03;100.00
7170;BME280;3626;42.656;23.312;2023-03-25T00:23:53;94272.03;;;7.03;100.00
7170;BME280;3626;42.656;23.312;2023-03-25T00:23:59;94264.34;;;7.03;100.00
7170;BME280;3626;42.656;23.312;2023-03-25T00:24:06;94268.69;;;7.02;100.00
7170;BME280;3626;42.656;23.312;2023-03-25T00:24:12;94269.66;;;7.01;100.00
7170;BME280;3626;42.656;23.312;2023-03-25T00:24:22;94268.69;;;7.02;100.00
7170;BME280;3626;42.656;23.312;2023-03-25T00:24:28;94272.03;;;7.03;100.00
7170;BME280;3626;42.656;23.312;2023-03-25T00:24:34;94269.47;;;7.03;100.00
7170;BME280;3626;42.656;23.312;2023-03-25T00:24:40;94271.25;;;7.02;100.00
7170;BME280;3626;42.656;23.312;2023-03-25T00:24:46;94267.72;;;7.03;100.00
7170;BME280;3626;42.656;23.312;2023-03-25T00:24:52;94267.72;;;7.03;100.00
7170;BME280;3626;42.656;23.312;2023-03-25T00:24:58;94267.72;;;7.03;100.00
7170;BME280;3626;42.656;23.312;2023-03-25T00:25:05;94264.34;;;7.03;100.00
7170;BME280;3626;42.656;23.312;2023-03-25T00:25:14;94265.94;;;7.04;100.00
7170;BME280;3626;42.656;23.312;2023-03-25T00:25:21;94271.09;;;7.04;100.00
7170;BME280;3626;42.656;23.312;2023-03-25T00:25:29;94270.13;;;7.05;100.00
7170;BME280;3626;42.656;23.312;2023-03-25T00:25:35;94268.38;;;7.05;100.00
7170;BME280;3626;42.656;23.312;2023-03-25T00:25:41;94266.75;;;7.04;100.00
7170;BME280;3626;42.656;23.312;2023-03-25T00:25:49;94266.63;;;7.06;100.00
7170;BME280;3626;42.656;23.312;2023-03-25T00:26:00;94265.66;;;7.07;100.00
7170;BME280;3626;42.656;23.312;2023-03-25T00:26:10;94259.56;;;7.08;100.00
7170;BME280;3626;42.656;23.312;2023-03-25T00:26:16;94271.59;;;7.07;100.00
7170;BME280;3626;42.656;23.312;2023-03-25T00:26:22;94269.81;;;7.08;100.00
7170;BME280;3626;42.656;23.312;2023-03-25T00:26:28;94269.81;;;7.08;100.00
7170;BME280;3626;42.656;23.312;2023-03-25T00:26:36;94262.13;;;7.08;100.00
7170;BME280;3626;42.656;23.312;2023-03-25T00:26:47;94267.25;;;7.08;100.00
7170;BME280;3626;42.656;23.312;2023-03-25T00:26:53;94264.69;;;7.08;100.00
7170;BME280;3626;42.656;23.312;2023-03-25T00:26:59;94264.69;;;7.08;100.00
7170;BME280;3626;42.656;23.312;2023-03-25T00:27:05;94273.19;;;7.08;100.00
7170;BME280;3626;42.656;23.312;2023-03-25T00:27:11;94262.13;;;7.08;100.00
7170;BME280;3626;42.656;23.312;2023-03-25T00:27:22;94262.13;;;7.08;100.00
7170;BME280;3626;42.656;23.312;2023-03-25T00:27:29;94264.69;;;7.08;100.00
7170;BME280;3626;42.656;23.312;2023-03-25T00:27:35;94265.50;;;7.08;100.00
7170;BME280;3626;42.656;23.312;2023-03-25T00:27:42;94262.94;;;7.08;100.00
7170;BME280;3626;42.656;23.312;2023-03-25T00:27:48;94263.88;;;7.07;100.00
7170;BME280;3626;42.656;23.312;2023-03-25T00:27:55;94265.66;;;7.07;100.00
7170;BME280;3626;42.656;23.312;2023-03-25T00:28:03;94266.47;;;7.07;100.00
7170;BME280;3626;42.656;23.312;2023-03-25T00:28:09;94265.66;;;7.07;100.00
7170;BME280;3626;42.656;23.312;2023-03-25T00:28:15;94257.97;;;7.07;100.00
7170;BME280;3626;42.656;23.312;2023-03-25T00:28:22;94266.47;;;7.07;100.00
7170;BME280;3626;42.656;23.312;2023-03-25T00:28:32;94263.88;;;7.07;100.00
7170;BME280;3626;42.656;23.312;2023-03-25T00:28:38;94263.09;;;7.07;100.00
7170;BME280;3626;42.656;23.312;2023-03-25T00:28:44;94263.09;;;7.07;100.00
7170;BME280;3626;42.656;23.312;2023-03-25T00:28:53;94259.84;;;7.05;100.00
7170;BME280;3626;42.656;23.312;2023-03-25T00:28:59;94262.59;;;7.03;100.00
7170;BME280;3626;42.656;23.312;2023-03-25T00:29:05;94260.19;;;7.01;100.00
7170;BME280;3626;42.656;23.312;2023-03-25T00:29:11;94263.69;;;7.00;100.00
7170;BME280;3626;42.656;23.312;2023-03-25T00:29:17;94263.69;;;7.00;100.00
7170;BME280;3626;42.656;23.312;2023-03-25T00:29:23;94263.06;;;6.98;100.00
7170;BME280;3626;42.656;23.312;2023-03-25T00:29:29;94264.66;;;6.99;100.00
7170;BME280;3626;42.656;23.312;2023-03-25T00:29:35;94265.63;;;6.98;100.00
7170;BME280;3626;42.656;23.312;2023-03-25T00:29:41;94266.41;;;6.99;100.00
7170;BME280;3626;42.656;23.312;2023-03-25T00:29:48;94263.06;;;6.98;100.00
7170;BME280;3626;42.656;23.312;2023-03-25T00:29:54;94259.69;;;6.98;100.00
7170;BME280;3626;42.656;23.312;2023-03-25T00:30:00;94260.47;;;6.98;100.00
7170;BME280;3626;42.656;23.312;2023-03-25T00:30:07;94265.63;;;6.98;100.00
7170;BME280;3626;42.656;23.312;2023-03-25T00:30:14;94264.66;;;6.99;100.00
7170;BME280;3626;42.656;23.312;2023-03-25T00:30:21;94261.28;;;6.99;100.00
7170;BME280;3626;42.656;23.312;2023-03-25T00:30:28;94267.22;;;6.99;100.00
7170;BME280;3626;42.656;23.312;2023-03-25T00:30:37;94262.09;;;6.99;100.00
7170;BME280;3626;42.656;23.312;2023-03-25T00:30:44;94264.66;;;6.99;100.00
7170;BME280;3626;42.656;23.312;2023-03-25T00:30:50;94262.88;;;7.00;100.00
7170;BME280;3626;42.656;23.312;2023-03-25T00:30:58;94268.81;;;7.00;100.00
7170;BME280;3626;42.656;23.312;2023-03-25T00:31:06;94260.19;;;7.01;100.00
7170;BME280;3626;42.656;23.312;2023-03-25T00:31:13;94260.31;;;7.00;100.00
7170;BME280;3626;42.656;23.312;2023-03-25T00:31:19;94264.50;;;7.01;100.00
7170;BME280;3626;42.656;23.312;2023-03-25T00:31:25;94266.25;;;7.00;100.00
7170;BME280;3626;42.656;23.312;2023-03-25T00:31:31;94256.81;;;7.01;100.00
7170;BME280;3626;42.656;23.312;2023-03-25T00:31:37;94260.97;;;7.02;100.00
7170;BME280;3626;42.656;23.312;2023-03-25T00:31:44;94259.38;;;7.01;100.00
7170;BME280;3626;42.656;23.312;2023-03-25T00:31:50;94252.50;;;7.01;100.00
7170;BME280;3626;42.656;23.312;2023-03-25T00:31:56;94262.75;;;7.01;100.00
7170;BME280;3626;42.656;23.312;2023-03-25T00:32:05;94262.75;;;7.01;100.00
7170;BME280;3626;42.656;23.312;2023-03-25T00:32:11;94260.97;;;7.02;100.00
7170;BME280;3626;42.656;23.312;2023-03-25T00:32:18;94255.06;;;7.01;100.00
7170;BME280;3626;42.656;23.312;2023-03-25T00:32:25;94261.78;;;7.03;100.00
7170;BME280;3626;42.656;23.312;2023-03-25T00:32:34;94255.06;;;7.01;100.00
7170;BME280;3626;42.656;23.312;2023-03-25T00:32:40;94257.44;;;7.03;100.00
7170;BME280;3626;42.656;23.312;2023-03-25T00:32:46;94260.03;;;7.03;100.00
7170;BME280;3626;42.656;23.312;2023-03-25T00:32:54;94260.03;;;7.03;100.00
7170;BME280;3626;42.656;23.312;2023-03-25T00:33:02;94257.44;;;7.03;100.00
7170;BME280;3626;42.656;23.312;2023-03-25T00:33:10;94254.88;;;7.03;100.00
7170;BME280;3626;42.656;23.312;2023-03-25T00:33:17;94256.66;;;7.03;100.00
7170;BME280;3626;42.656;23.312;2023-03-25T00:33:23;94254.09;;;7.03;100.00
7170;BME280;3626;42.656;23.312;2023-03-25T00:33:32;94255.84;;;7.02;100.00
7170;BME280;3626;42.656;23.312;2023-03-25T00:33:40;94256.66;;;7.03;100.00
7170;BME280;3626;42.656;23.312;2023-03-25T00:33:46;94260.81;;;7.04;100.00
7170;BME280;3626;42.656;23.312;2023-03-25T00:33:55;94258.25;;;7.04;100.00
7170;BME280;3626;42.656;23.312;2023-03-25T00:34:02;94258.41;;;7.02;100.00
7170;BME280;3626;42.656;23.312;2023-03-25T00:34:08;94254.09;;;7.03;100.00
7170;BME280;3626;42.656;23.312;2023-03-25T00:34:18;94264.34;;;7.03;100.00
7170;BME280;3626;42.656;23.312;2023-03-25T00:34:24;94261.78;;;7.03;100.00
7170;BME280;3626;42.656;23.312;2023-03-25T00:34:30;94257.44;;;7.03;100.00
7170;BME280;3626;42.656;23.312;2023-03-25T00:34:39;94263.38;;;7.04;100.00
7170;BME280;3626;42.656;23.312;2023-03-25T00:34:46;94254.09;;;7.03;100.00
7170;BME280;3626;42.656;23.312;2023-03-25T00:34:53;94253.94;;;7.04;100.00
7170;BME280;3626;42.656;23.312;2023-03-25T00:34:59;94259.06;;;7.04;100.00
7170;BME280;3626;42.656;23.312;2023-03-25T00:35:09;94256.66;;;7.03;100.00
7170;BME280;3626;42.656;23.312;2023-03-25T00:35:15;94261.78;;;7.03;100.00
7170;BME280;3626;42.656;23.312;2023-03-25T00:35:22;94254.09;;;7.03;100.00
7170;BME280;3626;42.656;23.312;2023-03-25T00:35:30;94264.34;;;7.03;100.00
7170;BME280;3626;42.656;23.312;2023-03-25T00:35:38;94256.66;;;7.03;100.00
7170;BME280;3626;42.656;23.312;2023-03-25T00:35:50;94266.13;;;7.02;100.00
7170;BME280;3626;42.656;23.312;2023-03-25T00:35:58;94260.19;;;7.01;100.00
7170;BME280;3626;42.656;23.312;2023-03-25T00:36:10;94264.34;;;7.03;100.00
7170;BME280;3626;42.656;23.312;2023-03-25T00:36:18;94262.75;;;7.01;100.00
7170;BME280;3626;42.656;23.312;2023-03-25T00:36:24;94259.38;;;7.01;100.00
7170;BME280;3626;42.656;23.312;2023-03-25T00:36:31;94255.06;;;7.01;100.00
7170;BME280;3626;42.656;23.312;2023-03-25T00:36:42;94257.63;;;7.01;100.00
7170;BME280;3626;42.656;23.312;2023-03-25T00:36:50;94256.81;;;7.01;100.00
7170;BME280;3626;42.656;23.312;2023-03-25T00:36:57;94255.84;;;7.02;100.00
7170;BME280;3626;42.656;23.312;2023-03-25T00:37:03;94261.78;;;7.03;100.00
7170;BME280;3626;42.656;23.312;2023-03-25T00:37:09;94263.56;;;7.02;100.00
7170;BME280;3626;42.656;23.312;2023-03-25T00:37:15;94254.09;;;7.03;100.00
7170;BME280;3626;42.656;23.312;2023-03-25T00:37:22;94255.06;;;7.01;100.00
7170;BME280;3626;42.656;23.312;2023-03-25T00:37:30;94255.06;;;7.01;100.00
7170;BME280;3626;42.656;23.312;2023-03-25T00:37:36;94250.72;;;7.02;100.00
7170;BME280;3626;42.656;23.312;2023-03-25T00:37:42;94259.22;;;7.03;100.00
7170;BME280;3626;42.656;23.312;2023-03-25T00:37:51;94248.97;;;7.03;100.00
7170;BME280;3626;42.656;23.312;2023-03-25T00:38:01;94248.97;;;7.03;100.00
7170;BME280;3626;42.656;23.312;2023-03-25T00:38:07;94258.25;;;7.04;100.00
7170;BME280;3626;42.656;23.312;2023-03-25T00:38:14;94257.44;;;7.03;100.00
7170;BME280;3626;42.656;23.312;2023-03-25T00:38:20;94256.66;;;7.03;100.00
7170;BME280;3626;42.656;23.312;2023-03-25T00:38:30;94256.66;;;7.03;100.00